createdAt,value
2017-08-29T00:00:46.846Z,0
2017-08-29T00:01:55.820Z,0
2017-08-29T00:03:04.493Z,0
2017-08-29T00:04:13.491Z,0
2017-08-29T00:05:22.153Z,0
2017-08-29T00:06:31.279Z,0
2017-08-29T00:07:39.948Z,0
2017-08-29T00:08:49.241Z,0
2017-08-29T00:09:58.207Z,0
2017-08-29T00:11:07.212Z,0
2017-08-29T00:12:16.920Z,0
2017-08-29T00:13:25.936Z,0
2017-08-29T00:14:35.233Z,0
2017-08-29T00:15:43.922Z,0
2017-08-29T00:16:53.543Z,0
2017-08-29T00:18:02.832Z,0
2017-08-29T00:19:12.111Z,0
2017-08-29T00:20:20.776Z,0
2017-08-29T00:21:29.433Z,0
2017-08-29T00:22:38.097Z,0
2017-08-29T00:23:47.700Z,0
2017-08-29T00:24:56.663Z,0
2017-08-29T00:26:05.942Z,0
2017-08-29T00:27:14.611Z,0
2017-08-29T00:28:24.215Z,0
2017-08-29T00:29:33.020Z,0
2017-08-29T00:30:42.307Z,0
2017-08-29T00:31:51.284Z,0
2017-08-29T00:33:00.894Z,0
2017-08-29T00:34:09.548Z,0
2017-08-29T00:35:18.837Z,0
2017-08-29T00:36:27.824Z,0
2017-08-29T00:37:36.809Z,0
2017-08-29T00:38:46.116Z,0
2017-08-29T00:39:55.419Z,0
2017-08-29T00:41:04.085Z,0
2017-08-29T00:42:12.752Z,0
2017-08-29T00:43:21.703Z,0
2017-08-29T00:44:30.673Z,0
2017-08-29T00:45:39.653Z,0
2017-08-29T00:46:48.680Z,0
2017-08-29T00:47:57.669Z,0
2017-08-29T00:49:06.993Z,0
2017-08-29T00:50:15.657Z,0
2017-08-29T00:51:24.622Z,0
2017-08-29T00:52:33.343Z,0
2017-08-29T00:53:42.355Z,0
2017-08-29T00:54:51.641Z,0
2017-08-29T00:56:00.649Z,0
2017-08-29T00:57:09.294Z,0
2017-08-29T00:58:18.422Z,0
2017-08-29T00:59:28.029Z,0
2017-08-29T01:00:36.692Z,0
2017-08-29T01:01:46.298Z,0
2017-08-29T01:02:54.954Z,0
2017-08-29T01:04:04.394Z,0
2017-08-29T01:05:13.377Z,0
2017-08-29T01:06:22.676Z,0
2017-08-29T01:07:31.657Z,0
2017-08-29T01:08:40.645Z,0
2017-08-29T01:09:49.749Z,0
2017-08-29T01:10:58.735Z,0
2017-08-29T01:12:08.033Z,0
2017-08-29T01:13:17.315Z,0
2017-08-29T01:14:26.930Z,0
2017-08-29T01:15:36.047Z,0
2017-08-29T01:16:45.653Z,0
2017-08-29T01:17:54.958Z,0
2017-08-29T01:19:03.914Z,0
2017-08-29T01:20:12.891Z,0
2017-08-29T01:21:21.695Z,0
2017-08-29T01:22:30.670Z,0
2017-08-29T01:23:40.272Z,0
2017-08-29T01:24:48.930Z,0
2017-08-29T01:25:57.918Z,0
2017-08-29T01:27:07.350Z,0
2017-08-29T01:28:16.954Z,0
2017-08-29T01:29:25.930Z,0
2017-08-29T01:30:35.211Z,0
2017-08-29T01:31:44.178Z,0
2017-08-29T01:32:52.930Z,0
2017-08-29T01:34:02.246Z,0
2017-08-29T01:35:11.843Z,0
2017-08-29T01:36:20.512Z,0
2017-08-29T01:37:29.486Z,0
2017-08-29T01:38:38.446Z,0
2017-08-29T01:39:47.741Z,0
2017-08-29T01:40:56.735Z,0
2017-08-29T01:42:05.387Z,0
2017-08-29T01:43:14.380Z,0
2017-08-29T01:44:23.095Z,0
2017-08-29T01:45:32.380Z,0
2017-08-29T01:46:41.667Z,0
2017-08-29T01:47:50.946Z,0
2017-08-29T01:48:59.602Z,0
2017-08-29T01:50:08.720Z,0
2017-08-29T01:51:17.694Z,0
2017-08-29T01:52:26.664Z,0
2017-08-29T01:53:35.646Z,0
2017-08-29T01:54:44.961Z,0
2017-08-29T01:55:54.416Z,0
2017-08-29T01:57:03.391Z,0
2017-08-29T01:58:12.061Z,0
2017-08-29T01:59:21.050Z,0
2017-08-29T02:00:29.709Z,0
2017-08-29T02:01:38.674Z,0
2017-08-29T02:02:47.328Z,0
2017-08-29T02:03:55.997Z,0
2017-08-29T02:05:05.357Z,0
2017-08-29T02:06:14.337Z,0
2017-08-29T02:07:23.359Z,0
2017-08-29T02:08:32.017Z,0
2017-08-29T02:09:41.308Z,0
2017-08-29T02:10:49.977Z,0
2017-08-29T02:11:58.947Z,0
2017-08-29T02:13:07.926Z,0
2017-08-29T02:14:17.201Z,0
2017-08-29T02:15:26.193Z,0
2017-08-29T02:16:35.174Z,0
2017-08-29T02:17:44.145Z,0
2017-08-29T02:18:53.437Z,0
2017-08-29T02:20:02.738Z,0
2017-08-29T02:21:12.067Z,0
2017-08-29T02:22:21.026Z,0
2017-08-29T02:23:30.013Z,0
2017-08-29T02:24:39.142Z,0
2017-08-29T02:25:48.126Z,0
2017-08-29T02:26:57.421Z,0
2017-08-29T02:28:06.714Z,0
2017-08-29T02:29:16.017Z,0
2017-08-29T02:30:25.359Z,0
2017-08-29T02:31:34.339Z,0
2017-08-29T02:32:43.310Z,0
2017-08-29T02:33:51.959Z,0
2017-08-29T02:35:00.620Z,0
2017-08-29T02:36:10.070Z,0
2017-08-29T02:37:19.370Z,0
2017-08-29T02:38:28.361Z,0
2017-08-29T02:39:37.355Z,0
2017-08-29T02:40:46.339Z,0
2017-08-29T02:41:55.629Z,0
2017-08-29T02:43:04.603Z,0
2017-08-29T02:44:13.588Z,0
2017-08-29T02:45:22.250Z,0
2017-08-29T02:46:31.232Z,0
2017-08-29T02:47:40.578Z,0
2017-08-29T02:48:49.233Z,0
2017-08-29T02:49:58.835Z,0
2017-08-29T02:51:08.129Z,0
2017-08-29T02:52:17.123Z,0
2017-08-29T02:53:25.774Z,0
2017-08-29T02:54:34.773Z,0
2017-08-29T02:55:43.747Z,0
2017-08-29T02:56:52.431Z,0
2017-08-29T02:58:01.395Z,0
2017-08-29T02:59:10.067Z,0
2017-08-29T03:00:19.352Z,0
2017-08-29T03:01:28.320Z,0
2017-08-29T03:02:36.969Z,0
2017-08-29T03:03:45.955Z,0
2017-08-29T03:04:55.028Z,0
2017-08-29T03:06:03.994Z,0
2017-08-29T03:07:12.955Z,0
2017-08-29T03:08:21.613Z,0
2017-08-29T03:09:30.903Z,0
2017-08-29T03:10:40.341Z,0
2017-08-29T03:11:48.998Z,0
2017-08-29T03:12:57.991Z,0
2017-08-29T03:14:06.978Z,0
2017-08-29T03:15:15.664Z,0
2017-08-29T03:16:24.947Z,0
2017-08-29T03:17:34.561Z,0
2017-08-29T03:18:43.236Z,0
2017-08-29T03:19:52.219Z,0
2017-08-29T03:21:01.197Z,0
2017-08-29T03:22:10.633Z,0
2017-08-29T03:23:19.307Z,0
2017-08-29T03:24:28.904Z,0
2017-08-29T03:25:37.574Z,0
2017-08-29T03:26:46.543Z,0
2017-08-29T03:27:55.830Z,0
2017-08-29T03:29:04.794Z,0
2017-08-29T03:30:14.098Z,0
2017-08-29T03:31:23.379Z,0
2017-08-29T03:32:32.349Z,0
2017-08-29T03:33:41.732Z,0
2017-08-29T03:34:51.329Z,0
2017-08-29T03:35:59.981Z,0
2017-08-29T03:37:09.263Z,0
2017-08-29T03:38:18.864Z,0
2017-08-29T03:39:27.840Z,0
2017-08-29T03:40:36.810Z,0
2017-08-29T03:41:45.846Z,0
2017-08-29T03:42:54.512Z,0
2017-08-29T03:44:03.472Z,0
2017-08-29T03:45:12.484Z,0
2017-08-29T03:46:21.139Z,0
2017-08-29T03:47:30.746Z,0
2017-08-29T03:48:39.798Z,0
2017-08-29T03:49:48.766Z,0
2017-08-29T03:50:57.742Z,0
2017-08-29T03:52:07.014Z,0
2017-08-29T03:53:15.665Z,0
2017-08-29T03:54:24.328Z,0
2017-08-29T03:55:33.312Z,0
2017-08-29T03:56:42.319Z,0
2017-08-29T03:57:51.294Z,0
2017-08-29T03:59:00.579Z,0
2017-08-29T04:00:09.541Z,0
2017-08-29T04:01:18.817Z,0
2017-08-29T04:02:28.887Z,0
2017-08-29T04:03:37.878Z,0
2017-08-29T04:04:46.542Z,0
2017-08-29T04:05:55.518Z,0
2017-08-29T04:07:04.189Z,0
2017-08-29T04:08:13.208Z,0
2017-08-29T04:09:22.497Z,0
2017-08-29T04:10:31.794Z,0
2017-08-29T04:11:41.086Z,0
2017-08-29T04:12:50.384Z,0
2017-08-29T04:13:59.818Z,0
2017-08-29T04:15:08.787Z,0
2017-08-29T04:16:17.452Z,0
2017-08-29T04:17:26.105Z,0
2017-08-29T04:18:35.391Z,0
2017-08-29T04:19:44.205Z,0
2017-08-29T04:20:53.483Z,0
2017-08-29T04:22:02.462Z,0
2017-08-29T04:23:11.423Z,0
2017-08-29T04:24:20.087Z,0
2017-08-29T04:25:29.052Z,0
2017-08-29T04:26:38.040Z,0
2017-08-29T04:27:47.350Z,0
2017-08-29T04:28:56.633Z,0
2017-08-29T04:30:05.921Z,0
2017-08-29T04:31:14.983Z,0
2017-08-29T04:32:24.585Z,0
2017-08-29T04:33:33.563Z,0
2017-08-29T04:34:42.545Z,0
2017-08-29T04:35:51.528Z,0
2017-08-29T04:37:00.824Z,0
2017-08-29T04:38:10.136Z,0
2017-08-29T04:39:18.859Z,0
2017-08-29T04:40:27.535Z,0
2017-08-29T04:41:36.819Z,0
2017-08-29T04:42:45.942Z,0
2017-08-29T04:43:54.610Z,0
2017-08-29T04:45:03.596Z,0
2017-08-29T04:46:12.282Z,0
2017-08-29T04:47:21.244Z,0
2017-08-29T04:48:30.334Z,0
2017-08-29T04:49:39.632Z,0
2017-08-29T04:50:49.272Z,0
2017-08-29T04:51:58.882Z,0
2017-08-29T04:53:08.489Z,0
2017-08-29T04:54:17.151Z,0
2017-08-29T04:55:25.801Z,0
2017-08-29T04:56:34.772Z,0
2017-08-29T04:57:43.430Z,0
2017-08-29T04:58:52.432Z,0
2017-08-29T05:00:01.086Z,0
2017-08-29T05:01:09.765Z,0
2017-08-29T05:02:19.065Z,0
2017-08-29T05:03:28.044Z,5
2017-08-29T05:04:37.010Z,5
2017-08-29T05:05:45.973Z,5
2017-08-29T05:06:54.945Z,5
2017-08-29T05:08:03.955Z,5
2017-08-29T05:09:12.615Z,5
2017-08-29T05:10:21.904Z,5
2017-08-29T05:11:31.826Z,5
2017-08-29T05:12:40.786Z,5
2017-08-29T05:13:49.439Z,5
2017-08-29T05:14:58.082Z,5
2017-08-29T05:16:07.362Z,5
2017-08-29T05:17:16.645Z,5
2017-08-29T05:18:25.625Z,5
2017-08-29T05:19:34.937Z,5
2017-08-29T05:20:43.582Z,10
2017-08-29T05:21:52.261Z,10
2017-08-29T05:23:02.042Z,10
2017-08-29T05:24:10.693Z,10
2017-08-29T05:25:19.668Z,10
2017-08-29T05:26:28.648Z,10
2017-08-29T05:27:37.318Z,10
2017-08-29T05:28:46.041Z,10
2017-08-29T05:29:55.352Z,10
2017-08-29T05:31:04.372Z,10
2017-08-29T05:32:13.358Z,10
2017-08-29T05:33:22.325Z,10
2017-08-29T05:34:31.401Z,15
2017-08-29T05:35:40.373Z,15
2017-08-29T05:36:49.341Z,15
2017-08-29T05:37:58.322Z,20
2017-08-29T05:39:06.985Z,20
2017-08-29T05:40:16.719Z,20
2017-08-29T05:41:25.380Z,20
2017-08-29T05:42:34.367Z,20
2017-08-29T05:43:43.344Z,25
2017-08-29T05:44:52.346Z,25
2017-08-29T05:46:01.707Z,25
2017-08-29T05:47:11.031Z,25
2017-08-29T05:48:20.023Z,25
2017-08-29T05:49:28.995Z,25
2017-08-29T05:50:37.984Z,30
2017-08-29T05:51:47.450Z,30
2017-08-29T05:52:56.745Z,30
2017-08-29T05:54:05.423Z,35
2017-08-29T05:55:14.719Z,35
2017-08-29T05:56:23.716Z,40
2017-08-29T05:57:32.400Z,30
2017-08-29T05:58:41.699Z,30
2017-08-29T05:59:50.680Z,30
2017-08-29T06:00:59.668Z,25
2017-08-29T06:02:08.652Z,25
2017-08-29T06:03:17.702Z,25
2017-08-29T06:04:27.006Z,25
2017-08-29T06:05:36.646Z,25
2017-08-29T06:06:45.621Z,25
2017-08-29T06:07:54.923Z,25
2017-08-29T06:09:03.917Z,25
2017-08-29T06:10:13.517Z,30
2017-08-29T06:11:23.119Z,30
2017-08-29T06:12:32.436Z,30
2017-08-29T06:13:41.418Z,25
2017-08-29T06:14:50.407Z,25
2017-08-29T06:15:59.366Z,25
2017-08-29T06:17:08.338Z,25
2017-08-29T06:18:17.317Z,30
2017-08-29T06:19:26.281Z,30
2017-08-29T06:20:34.943Z,30
2017-08-29T06:21:43.612Z,35
2017-08-29T06:22:52.330Z,35
2017-08-29T06:24:01.354Z,35
2017-08-29T06:25:10.654Z,40
2017-08-29T06:26:19.345Z,40
2017-08-29T06:27:28.324Z,40
2017-08-29T06:28:37.622Z,35
2017-08-29T06:29:46.641Z,35
2017-08-29T06:30:55.635Z,35
2017-08-29T06:32:05.034Z,35
2017-08-29T06:33:14.007Z,35
2017-08-29T06:34:22.677Z,35
2017-08-29T06:35:31.680Z,35
2017-08-29T06:36:40.972Z,35
2017-08-29T06:37:49.980Z,35
2017-08-29T06:38:58.648Z,35
2017-08-29T06:40:07.329Z,35
2017-08-29T06:41:16.307Z,35
2017-08-29T06:42:25.622Z,35
2017-08-29T06:43:35.208Z,35
2017-08-29T06:44:44.186Z,35
2017-08-29T06:45:53.168Z,35
2017-08-29T06:47:02.465Z,35
2017-08-29T06:48:11.437Z,35
2017-08-29T06:49:21.072Z,35
2017-08-29T06:50:30.058Z,35
2017-08-29T06:51:39.056Z,30
2017-08-29T06:52:47.739Z,30
2017-08-29T06:53:57.030Z,30
2017-08-29T06:55:06.629Z,30
2017-08-29T06:56:15.315Z,35
2017-08-29T06:57:24.307Z,35
2017-08-29T06:58:33.599Z,35
2017-08-29T06:59:42.589Z,35
2017-08-29T07:00:51.298Z,35
2017-08-29T07:02:00.991Z,35
2017-08-29T07:03:09.984Z,35
2017-08-29T07:04:18.657Z,40
2017-08-29T07:05:27.950Z,40
2017-08-29T07:06:36.983Z,40
2017-08-29T07:07:45.646Z,40
2017-08-29T07:08:54.932Z,40
2017-08-29T07:10:04.546Z,40
2017-08-29T07:11:13.869Z,40
2017-08-29T07:12:22.938Z,40
2017-08-29T07:13:31.933Z,40
2017-08-29T07:14:40.603Z,45
2017-08-29T07:15:49.585Z,45
2017-08-29T07:16:58.882Z,45
2017-08-29T07:18:09.461Z,45
2017-08-29T07:19:18.448Z,45
2017-08-29T07:20:27.439Z,45
2017-08-29T07:21:36.719Z,45
2017-08-29T07:22:45.728Z,45
2017-08-29T07:23:55.185Z,45
2017-08-29T07:25:04.498Z,45
2017-08-29T07:26:13.822Z,45
2017-08-29T07:27:23.133Z,45
2017-08-29T07:28:32.114Z,45
2017-08-29T07:29:41.424Z,50
2017-08-29T07:31:15.789Z,50
2017-08-29T07:32:25.095Z,50
2017-08-29T07:33:34.091Z,50
2017-08-29T07:34:43.407Z,50
2017-08-29T07:35:53.032Z,50
2017-08-29T07:37:01.735Z,50
2017-08-29T07:38:10.723Z,50
2017-08-29T07:39:19.431Z,50
2017-08-29T07:40:28.434Z,50
2017-08-29T07:41:38.078Z,55
2017-08-29T07:42:47.448Z,55
2017-08-29T07:43:56.429Z,60
2017-08-29T07:45:05.734Z,70
2017-08-29T07:46:14.754Z,95
2017-08-29T07:47:24.050Z,115
2017-08-29T07:48:32.735Z,115
2017-08-29T07:49:41.430Z,115
2017-08-29T07:50:51.089Z,115
2017-08-29T07:52:00.385Z,110
2017-08-29T07:53:10.018Z,90
2017-08-29T07:54:19.014Z,70
2017-08-29T07:55:27.704Z,65
2017-08-29T07:56:36.403Z,60
2017-08-29T07:57:45.700Z,55
2017-08-29T07:58:54.385Z,55
2017-08-29T08:00:03.398Z,55
2017-08-29T08:01:12.081Z,50
2017-08-29T08:02:21.069Z,50
2017-08-29T08:03:30.043Z,55
2017-08-29T08:04:39.353Z,55
2017-08-29T08:05:48.350Z,55
2017-08-29T08:06:57.670Z,50
2017-08-29T08:08:06.711Z,50
2017-08-29T08:09:15.703Z,50
2017-08-29T08:10:24.677Z,50
2017-08-29T08:11:33.996Z,50
2017-08-29T08:12:43.014Z,50
2017-08-29T08:13:51.695Z,50
2017-08-29T08:15:01.343Z,50
2017-08-29T08:16:10.956Z,50
2017-08-29T08:17:19.945Z,50
2017-08-29T08:18:29.562Z,50
2017-08-29T08:19:38.588Z,50
2017-08-29T08:20:47.903Z,50
2017-08-29T08:21:56.885Z,50
2017-08-29T08:23:06.186Z,50
2017-08-29T08:24:15.239Z,50
2017-08-29T08:25:24.858Z,50
2017-08-29T08:26:34.473Z,50
2017-08-29T08:27:43.775Z,50
2017-08-29T08:28:53.093Z,50
2017-08-29T08:30:02.720Z,50
2017-08-29T08:31:11.396Z,50
2017-08-29T08:32:20.390Z,50
2017-08-29T08:33:29.394Z,50
2017-08-29T08:34:39.351Z,50
2017-08-29T08:35:48.366Z,45
2017-08-29T08:36:57.388Z,45
2017-08-29T08:38:07.028Z,45
2017-08-29T08:39:15.722Z,45
2017-08-29T08:40:24.699Z,45
2017-08-29T08:41:34.302Z,45
2017-08-29T08:42:43.613Z,45
2017-08-29T08:43:53.235Z,45
2017-08-29T08:45:02.303Z,45
2017-08-29T08:46:10.984Z,45
2017-08-29T08:47:20.294Z,45
2017-08-29T08:48:29.282Z,45
2017-08-29T08:49:38.381Z,45
2017-08-29T08:50:47.715Z,45
2017-08-29T08:51:56.440Z,45
2017-08-29T08:53:05.445Z,45
2017-08-29T08:54:14.468Z,40
2017-08-29T08:55:23.763Z,40
2017-08-29T08:56:32.754Z,40
2017-08-29T08:57:41.452Z,40
2017-08-29T08:58:50.754Z,40
2017-08-29T09:00:00.067Z,40
2017-08-29T09:01:08.732Z,40
2017-08-29T09:02:17.712Z,40
2017-08-29T09:03:27.014Z,40
2017-08-29T09:04:36.672Z,40
2017-08-29T09:05:45.669Z,40
2017-08-29T09:06:54.668Z,40
2017-08-29T09:08:03.977Z,40
2017-08-29T09:09:12.950Z,40
2017-08-29T09:10:21.950Z,40
2017-08-29T09:11:30.941Z,40
2017-08-29T09:12:40.612Z,40
2017-08-29T09:13:49.604Z,40
2017-08-29T09:14:58.277Z,40
2017-08-29T09:16:06.973Z,40
2017-08-29T09:17:15.985Z,40
2017-08-29T09:18:25.302Z,40
2017-08-29T09:19:34.298Z,40
2017-08-29T09:20:43.009Z,40
2017-08-29T09:21:52.642Z,35
2017-08-29T09:23:01.304Z,35
2017-08-29T09:24:10.317Z,35
2017-08-29T09:25:18.979Z,35
2017-08-29T09:26:28.280Z,35
2017-08-29T09:27:37.591Z,35
2017-08-29T09:28:46.917Z,35
2017-08-29T09:29:56.860Z,35
2017-08-29T09:31:05.857Z,35
2017-08-29T09:32:14.882Z,35
2017-08-29T09:33:23.875Z,35
2017-08-29T09:34:33.172Z,35
2017-08-29T09:35:42.182Z,35
2017-08-29T09:36:51.306Z,35
2017-08-29T09:38:00.316Z,35
2017-08-29T09:39:09.601Z,35
2017-08-29T09:40:18.268Z,35
2017-08-29T09:41:27.255Z,35
2017-08-29T09:42:36.244Z,35
2017-08-29T09:43:45.542Z,35
2017-08-29T09:44:55.157Z,30
2017-08-29T09:46:03.823Z,30
2017-08-29T09:47:12.496Z,30
2017-08-29T09:48:21.801Z,30
2017-08-29T09:49:30.787Z,30
2017-08-29T09:50:40.121Z,30
2017-08-29T09:51:49.486Z,30
2017-08-29T09:52:58.475Z,30
2017-08-29T09:54:07.470Z,30
2017-08-29T09:55:16.133Z,30
2017-08-29T09:56:25.135Z,30
2017-08-29T09:57:33.811Z,30
2017-08-29T09:58:42.646Z,30
2017-08-29T09:59:52.294Z,30
2017-08-29T10:01:01.029Z,30
2017-08-29T10:02:10.070Z,30
2017-08-29T10:03:19.372Z,30
2017-08-29T10:04:28.362Z,30
2017-08-29T10:05:37.384Z,30
2017-08-29T10:06:46.373Z,30
2017-08-29T10:07:56.340Z,30
2017-08-29T10:09:05.013Z,30
2017-08-29T10:10:14.440Z,30
2017-08-29T10:11:23.746Z,30
2017-08-29T10:12:33.070Z,30
2017-08-29T10:13:42.392Z,30
2017-08-29T10:14:51.077Z,30
2017-08-29T10:16:00.386Z,25
2017-08-29T10:17:09.699Z,25
2017-08-29T10:18:19.310Z,25
2017-08-29T10:19:28.615Z,25
2017-08-29T10:20:37.609Z,25
2017-08-29T10:21:46.602Z,25
2017-08-29T10:22:55.895Z,25
2017-08-29T10:24:05.530Z,25
2017-08-29T10:25:15.150Z,25
2017-08-29T10:26:24.147Z,25
2017-08-29T10:27:33.461Z,25
2017-08-29T10:28:42.479Z,25
2017-08-29T10:29:51.777Z,25
2017-08-29T10:31:01.431Z,25
2017-08-29T10:32:10.758Z,25
2017-08-29T10:33:20.089Z,25
2017-08-29T10:34:29.105Z,25
2017-08-29T10:35:38.442Z,25
2017-08-29T10:36:47.756Z,25
2017-08-29T10:37:57.080Z,25
2017-08-29T10:39:05.755Z,25
2017-08-29T10:40:14.484Z,25
2017-08-29T10:41:23.797Z,25
2017-08-29T10:42:32.480Z,25
2017-08-29T10:43:41.179Z,25
2017-08-29T10:44:50.190Z,25
2017-08-29T10:45:59.184Z,25
2017-08-29T10:47:07.925Z,25
2017-08-29T10:48:16.602Z,25
2017-08-29T10:49:25.285Z,25
2017-08-29T10:50:34.920Z,25
2017-08-29T10:51:43.919Z,25
2017-08-29T10:52:52.909Z,20
2017-08-29T10:54:01.902Z,20
2017-08-29T10:55:10.916Z,20
2017-08-29T10:56:19.906Z,20
2017-08-29T10:57:28.953Z,20
2017-08-29T10:58:38.274Z,20
2017-08-29T10:59:47.255Z,20
2017-08-29T11:00:56.244Z,20
2017-08-29T11:02:04.909Z,20
2017-08-29T11:03:13.583Z,20
2017-08-29T11:04:22.565Z,20
2017-08-29T11:05:32.197Z,20
2017-08-29T11:06:41.204Z,20
2017-08-29T11:07:50.189Z,20
2017-08-29T11:08:59.814Z,20
2017-08-29T11:10:08.825Z,20
2017-08-29T11:11:17.492Z,20
2017-08-29T11:12:27.452Z,20
2017-08-29T11:13:36.758Z,20
2017-08-29T11:14:45.774Z,20
2017-08-29T11:15:54.794Z,20
2017-08-29T11:17:04.112Z,20
2017-08-29T11:18:13.484Z,20
2017-08-29T11:19:22.497Z,20
2017-08-29T11:20:31.835Z,20
2017-08-29T11:21:40.498Z,20
2017-08-29T11:22:50.444Z,20
2017-08-29T11:23:59.435Z,20
2017-08-29T11:25:09.051Z,20
2017-08-29T11:26:18.051Z,20
2017-08-29T11:27:27.375Z,20
2017-08-29T11:28:36.384Z,20
2017-08-29T11:29:45.390Z,20
2017-08-29T11:30:54.699Z,20
2017-08-29T11:32:03.428Z,20
2017-08-29T11:33:13.071Z,20
2017-08-29T11:34:22.083Z,20
2017-08-29T11:35:30.798Z,20
2017-08-29T11:36:40.469Z,20
2017-08-29T11:37:49.156Z,20
2017-08-29T11:38:57.819Z,20
2017-08-29T11:40:07.131Z,20
2017-08-29T11:41:17.090Z,20
2017-08-29T11:42:25.791Z,20
2017-08-29T11:43:34.809Z,20
2017-08-29T11:44:44.469Z,20
2017-08-29T11:45:53.502Z,20
2017-08-29T11:47:03.137Z,20
2017-08-29T11:48:11.825Z,20
2017-08-29T11:49:20.812Z,20
2017-08-29T11:50:30.133Z,20
2017-08-29T11:51:39.127Z,20
2017-08-29T11:52:48.113Z,20
2017-08-29T11:53:57.127Z,20
2017-08-29T11:55:05.813Z,20
2017-08-29T11:56:15.125Z,20
2017-08-29T11:57:24.449Z,20
2017-08-29T11:58:34.068Z,20
2017-08-29T11:59:43.071Z,20
2017-08-29T12:00:52.095Z,20
2017-08-29T12:02:00.781Z,20
2017-08-29T12:03:09.457Z,20
2017-08-29T12:04:18.439Z,20
2017-08-29T12:05:27.121Z,20
2017-08-29T12:06:36.428Z,20
2017-08-29T12:07:45.746Z,20
2017-08-29T12:08:55.389Z,20
2017-08-29T12:10:04.704Z,20
2017-08-29T12:11:13.988Z,20
2017-08-29T12:12:22.665Z,20
2017-08-29T12:13:31.974Z,20
2017-08-29T12:14:41.605Z,20
2017-08-29T12:15:50.592Z,20
2017-08-29T12:16:59.283Z,20
2017-08-29T12:18:09.225Z,20
2017-08-29T12:19:18.855Z,20
2017-08-29T12:20:27.558Z,20
2017-08-29T12:21:36.558Z,20
2017-08-29T12:22:45.857Z,20
2017-08-29T12:23:55.493Z,20
2017-08-29T12:25:04.807Z,20
2017-08-29T12:26:14.093Z,20
2017-08-29T12:27:23.073Z,20
2017-08-29T12:28:32.071Z,20
2017-08-29T12:29:41.378Z,20
2017-08-29T12:30:50.699Z,20
2017-08-29T12:31:59.696Z,20
2017-08-29T12:33:08.700Z,20
2017-08-29T12:34:17.728Z,20
2017-08-29T12:35:26.398Z,20
2017-08-29T12:36:35.068Z,20
2017-08-29T12:37:43.772Z,20
2017-08-29T12:38:52.755Z,15
2017-08-29T12:40:02.049Z,15
2017-08-29T12:41:10.727Z,15
2017-08-29T12:42:20.027Z,15
2017-08-29T12:43:29.326Z,15
2017-08-29T12:44:37.998Z,15
2017-08-29T12:45:46.697Z,15
2017-08-29T12:46:55.997Z,15
2017-08-29T12:48:04.977Z,15
2017-08-29T12:49:14.303Z,15
2017-08-29T12:50:23.290Z,15
2017-08-29T12:51:32.600Z,15
2017-08-29T12:52:41.263Z,15
2017-08-29T12:53:49.955Z,15
2017-08-29T12:54:58.945Z,15
2017-08-29T12:56:08.257Z,15
2017-08-29T12:57:17.231Z,15
2017-08-29T12:58:26.208Z,15
2017-08-29T12:59:35.239Z,15
2017-08-29T13:00:44.222Z,15
2017-08-29T13:01:53.214Z,15
2017-08-29T13:03:01.886Z,15
2017-08-29T13:04:10.556Z,15
2017-08-29T13:05:19.552Z,15
2017-08-29T13:06:29.512Z,15
2017-08-29T13:07:38.520Z,15
2017-08-29T13:08:47.526Z,15
2017-08-29T13:09:56.213Z,15
2017-08-29T13:11:05.198Z,15
2017-08-29T13:12:13.870Z,15
2017-08-29T13:13:22.583Z,15
2017-08-29T13:14:31.576Z,15
2017-08-29T13:15:40.267Z,15
2017-08-29T13:16:48.938Z,15
2017-08-29T13:17:58.245Z,15
2017-08-29T13:19:07.244Z,15
2017-08-29T13:20:16.317Z,15
2017-08-29T13:21:25.311Z,15
2017-08-29T13:22:34.288Z,15
2017-08-29T13:23:43.678Z,15
2017-08-29T13:24:53.311Z,15
2017-08-29T13:26:02.392Z,15
2017-08-29T13:27:11.076Z,15
2017-08-29T13:28:20.402Z,15
2017-08-29T13:29:29.405Z,15
2017-08-29T13:30:38.710Z,15
2017-08-29T13:31:47.486Z,15
2017-08-29T13:32:56.887Z,15
2017-08-29T13:34:06.249Z,15
2017-08-29T13:35:16.182Z,15
2017-08-29T13:36:25.184Z,15
2017-08-29T13:37:34.563Z,15
2017-08-29T13:38:43.561Z,15
2017-08-29T13:39:52.263Z,15
2017-08-29T13:41:01.570Z,15
2017-08-29T13:42:10.913Z,15
2017-08-29T13:43:20.535Z,15
2017-08-29T13:44:30.162Z,15
2017-08-29T13:45:39.464Z,15
2017-08-29T13:46:48.463Z,15
2017-08-29T13:47:58.083Z,15
2017-08-29T13:49:06.753Z,15
2017-08-29T13:50:16.363Z,15
2017-08-29T13:51:25.052Z,15
2017-08-29T13:52:34.042Z,15
2017-08-29T13:53:43.329Z,15
2017-08-29T13:54:52.654Z,15
2017-08-29T13:56:02.017Z,15
2017-08-29T13:57:10.679Z,15
2017-08-29T13:58:20.052Z,15
2017-08-29T13:59:29.052Z,15
2017-08-29T14:00:38.050Z,15
2017-08-29T14:01:47.113Z,15
2017-08-29T14:02:56.111Z,15
2017-08-29T14:04:05.747Z,15
2017-08-29T14:05:14.410Z,15
2017-08-29T14:06:23.713Z,15
2017-08-29T14:07:32.777Z,15
2017-08-29T14:08:42.144Z,15
2017-08-29T14:09:50.919Z,15
2017-08-29T14:10:59.944Z,15
2017-08-29T14:12:08.622Z,15
2017-08-29T14:13:17.288Z,15
2017-08-29T14:14:26.290Z,15
2017-08-29T14:15:35.583Z,15
2017-08-29T14:16:44.557Z,15
2017-08-29T14:17:53.861Z,15
2017-08-29T14:19:02.847Z,15
2017-08-29T14:20:11.525Z,15
2017-08-29T14:21:21.173Z,15
2017-08-29T14:22:30.179Z,15
2017-08-29T14:23:38.852Z,15
2017-08-29T14:24:47.845Z,15
2017-08-29T14:25:56.844Z,15
2017-08-29T14:27:05.818Z,15
2017-08-29T14:28:15.435Z,15
2017-08-29T14:29:24.103Z,15
2017-08-29T14:30:33.420Z,15
2017-08-29T14:31:42.715Z,15
2017-08-29T14:32:51.734Z,15
2017-08-29T14:34:01.025Z,15
2017-08-29T14:35:10.326Z,15
2017-08-29T14:36:19.310Z,15
2017-08-29T14:37:27.979Z,15
2017-08-29T14:38:36.646Z,15
2017-08-29T14:39:45.939Z,15
2017-08-29T14:40:55.238Z,15
2017-08-29T14:42:04.556Z,15
2017-08-29T14:43:13.236Z,15
2017-08-29T14:44:21.912Z,15
2017-08-29T14:45:31.871Z,15
2017-08-29T14:46:40.547Z,15
2017-08-29T14:47:49.524Z,15
2017-08-29T14:48:58.563Z,15
2017-08-29T14:50:07.864Z,15
2017-08-29T14:51:17.178Z,15
2017-08-29T14:52:25.849Z,15
2017-08-29T14:53:34.834Z,15
2017-08-29T14:54:43.835Z,15
2017-08-29T14:55:53.147Z,10
2017-08-29T14:57:02.133Z,10
2017-08-29T14:58:11.117Z,10
2017-08-29T14:59:20.419Z,10
2017-08-29T15:00:29.775Z,10
2017-08-29T15:01:39.097Z,10
2017-08-29T15:02:48.099Z,10
2017-08-29T15:03:56.778Z,10
2017-08-29T15:05:06.078Z,10
2017-08-29T15:06:15.706Z,10
2017-08-29T15:07:25.021Z,10
2017-08-29T15:08:34.065Z,10
2017-08-29T15:09:42.934Z,10
2017-08-29T15:10:51.607Z,10
2017-08-29T15:12:00.277Z,10
2017-08-29T15:13:09.298Z,10
2017-08-29T15:14:18.305Z,10
2017-08-29T15:15:27.002Z,10
2017-08-29T15:16:35.710Z,10
2017-08-29T15:17:45.015Z,10
2017-08-29T15:18:54.002Z,10
2017-08-29T15:20:03.357Z,10
2017-08-29T15:21:12.374Z,10
2017-08-29T15:22:21.689Z,10
2017-08-29T15:23:30.998Z,10
2017-08-29T15:24:40.008Z,10
2017-08-29T15:25:48.984Z,10
2017-08-29T15:26:58.316Z,10
2017-08-29T15:28:06.996Z,10
2017-08-29T15:29:16.000Z,10
2017-08-29T15:30:25.308Z,10
2017-08-29T15:31:33.973Z,10
2017-08-29T15:32:43.595Z,10
2017-08-29T15:33:52.316Z,10
2017-08-29T15:35:01.936Z,10
2017-08-29T15:36:10.928Z,10
2017-08-29T15:37:19.594Z,10
2017-08-29T15:38:28.913Z,10
2017-08-29T15:39:38.224Z,10
2017-08-29T15:40:47.235Z,10
2017-08-29T15:41:56.553Z,10
2017-08-29T15:43:05.524Z,10
2017-08-29T15:44:14.515Z,10
2017-08-29T15:45:23.512Z,10
2017-08-29T15:46:32.561Z,10
2017-08-29T15:47:41.260Z,10
2017-08-29T15:48:49.946Z,10
2017-08-29T15:49:59.262Z,10
2017-08-29T15:51:08.621Z,10
2017-08-29T15:52:17.604Z,10
2017-08-29T15:53:26.586Z,10
2017-08-29T15:54:35.594Z,10
2017-08-29T15:55:46.430Z,10
2017-08-29T15:56:55.467Z,10
2017-08-29T15:58:05.297Z,10
2017-08-29T15:59:14.611Z,10
2017-08-29T16:00:23.644Z,10
2017-08-29T16:01:33.344Z,10
2017-08-29T16:02:42.364Z,10
2017-08-29T16:03:51.668Z,10
2017-08-29T16:05:00.684Z,10
2017-08-29T16:06:09.696Z,10
2017-08-29T16:07:18.377Z,10
2017-08-29T16:08:27.383Z,10
2017-08-29T16:09:36.360Z,10
2017-08-29T16:10:45.387Z,10
2017-08-29T16:11:54.456Z,10
2017-08-29T16:13:03.478Z,10
2017-08-29T16:14:13.422Z,10
2017-08-29T16:15:22.430Z,10
2017-08-29T16:16:31.430Z,10
2017-08-29T16:17:41.059Z,10
2017-08-29T16:18:50.692Z,10
2017-08-29T16:19:59.982Z,10
2017-08-29T16:21:09.289Z,10
2017-08-29T16:22:18.981Z,10
2017-08-29T16:23:28.278Z,10
2017-08-29T16:24:37.575Z,10
2017-08-29T16:25:46.565Z,10
2017-08-29T16:26:55.236Z,10
2017-08-29T16:28:03.940Z,10
2017-08-29T16:29:12.933Z,10
2017-08-29T16:30:22.241Z,10
2017-08-29T16:31:31.550Z,10
2017-08-29T16:32:40.550Z,10
2017-08-29T16:33:49.529Z,10
2017-08-29T16:34:58.502Z,10
2017-08-29T16:36:07.186Z,10
2017-08-29T16:37:16.194Z,10